Kuemmersruck, Germany

10:51 AM CEST on September 01, 2014 (GMT +0200)
highlands | Change Station
CLOSE
Current Station
Personal Weather Station
Location: Fensterbach, BAYERN
Elevation: 1280 ft
Nearby Weather Stations

Elev 1280 ft 49.40 °N, 12.02 °E | Updated 1 second ago

Mostly Cloudy
Mostly Cloudy
57.2 °F
Feels Like 57.2 °F
N
4.3
Wind Variable Wind from WNW
Gusts 4.9 mph

Today
High -- | Low -- °F
--% Chance of Precip.
Yesterday
High -- | Low -- °F
Precip. -- in
6:27 AM 7:55 PM
Waxing Crescent, 39% visible
Pressure 30.09 in
Visibility 6.2 miles
Clouds Few 1700 ft
Mostly Cloudy 2700 ft
Mostly Cloudy 5000 ft
Dew Point 55 °F
Humidity 91%
Rainfall 0.01 in
Snow Depth Not available.
UV 3.0 out of 12
Pollen Not available.
Air Quality Not available.
Flu Activity Not available.
SPECI ETIH 010849Z AUTO VRB06KT 9999 FEW017 BKN027 BKN050 14/10 A3009 RMK AO2 CIG 027V050 BKN027 V SCT

More Conditions Fewer Conditions

Pressure 30.09 in
Visibility 6.2 miles
Clouds Few 1700 ft
Mostly Cloudy 2700 ft
Mostly Cloudy 5000 ft
Dew Point 55 °F
Humidity 91%
Rainfall 0.01 in
Snow Depth Not available.
UV 3.0 out of 12
Pollen Not available.
Air Quality Not available.
Flu Activity Not available.
SPECI ETIH 010849Z AUTO VRB06KT 9999 FEW017 BKN027 BKN050 14/10 A3009 RMK AO2 CIG 027V050 BKN027 V SCT

More Conditions Fewer Conditions

10-Day Weather Forecast

Almanac

Astronomy

Sep. 01, 2014 Rise Set
Actual Time 6:27 AM CEST 7:55 PM CEST
Civil Twilight 5:54 AM CEST 8:29 PM CEST
Nautical Twilight 5:14 AM CEST 9:09 PM CEST
Astronomical Twilight 4:29 AM CEST 9:53 PM CEST
Moon 1:33 PM CEST 11:06 PM CEST
Length of Visible Light 14h 34m
Length of Day
13h 27m
Tomorrow will be 3m 32s shorter.
Waxing Crescent, 39% of the Moon is Illuminated
Today
Waxing Crescent
Sep 2
First Quarter
Sep 8
Full
Sep 15
Last Quarter
Sep 24
New

Yesterday's Extremes

Country Highs Country Lows

Community

WunderPhotos

Upload Photos

1,749,178 photos uploaded!

Nearby

Snow Depth

Not available.

Earthquake Activity

City Distance Mag. Time & Date
No recent earthquake activity has been reported nearby.
Minimum magnitude displayed is 2.5.

Coastal Water Temperatures

Place Temperature
No Stations Reporting

Nearby Weather Stations